Weather observations for the past three days for
Middleton Island Airport
Imperial (Metric)
Date Time (akdt) Wind (mph) Vis. (mi.) Weather Sky Cond. Temperature (ºF) Relative Humidity Wind Chill (°F) Heat Index (°F) Pressure Precipitation (in)
Air Dwpt 6 hour altimeter (in) sea level (mb) 1 hr 3 hr 6 hr
Max. Min.
04 23:56 SW 12 0.25 Light Rain Fog OVC003 55.9 55.9 100% 30.16 1021.2
04 22:56 SW 9 0.25 Light Rain Fog OVC003 55.9 55.9 100% 30.16 1021.3
04 21:56 SW 8 0.25 Light Rain Fog OVC003 55.9 55.9 55.9 54 100% 30.16 1021.3
04 20:56 SW 9 0.25 Light Rain Fog OVC003 55.9 55.9 100% 30.17 1021.5
04 19:56 SW 6 0.25 Light Rain Fog OVC003 55.9 55.9 100% 30.16 1021.5
04 18:56 SW 8 1.25 Light Rain Fog/Mist OVC003 55 55 100% 30.17 1021.7
04 17:56 SW 6 0.25 Fog OVC003 54 54 100% 30.18 1022.1
04 16:56 Vrbl 5 1.25 Fog/Mist OVC003 54 54 100% 30.19 1022.2
04 15:56 W 9 4.00 Fog/Mist OVC003 54 54 55.9 53.1 100% 30.19 1022.5
04 14:56 W 7 1.75 Fog/Mist OVC003 55 55 100% 30.19 1022.5
04 13:56 W 12 5.00 Fog/Mist OVC003 55 55 100% 30.2 1022.6
04 12:56 SW 10 1.50 Fog/Mist OVC003 55 55 100% 30.2 1022.7
04 11:56 SW 9 1.25 Fog/Mist OVC003 54 54 100% 30.19 1022.5
04 10:56 W 8 10.00 Overcast OVC005 54 53.1 97% 30.19 1022.3
04 09:56 W 8 10.00 Overcast BKN005 OVC042 53.1 53.1 54 53.1 100% 30.19 1022.2 0.01
04 08:56 W 7 10.00 Overcast OVC011 53.1 53.1 100% 30.18 1022.2 0.01
04 07:56 W 5 10.00 Overcast FEW002 OVC013 53.1 53.1 100% 30.18 1022.1
04 06:56 W 5 0.75 Fog/Mist OVC004 53.1 53.1 100% 30.18 1021.8
04 05:56 W 5 0.25 Fog BKN004 BKN009 OVC015 53.1 53.1 100% 30.17 1021.7
04 04:56 W 3 1.00 Fog/Mist OVC004 53.1 53.1 100% 30.17 1021.4
04 03:56 SW 5 0.75 Light Rain Fog/Mist OVC004 54 54 55 53.1 100% 30.16 1021.3
04 02:56 S 5 3.00 Light Rain Fog/Mist OVC008 53.1 53.1 100% 30.17 1021.5
04 01:56 S 8 10.00 Overcast OVC012 54 54 100% 30.17 1021.7
04 00:56 S 6 10.00 Overcast OVC006 55 55 100% 30.18 1021.9
03 23:56 SW 7 10.00 Mostly Cloudy BKN021 54 54 100% 30.17 1021.7
03 22:56 SW 6 10.00 Fair CLR 54 54 100% 30.17 1021.5
03 21:56 SW 6 10.00 Fair CLR 54 54 63 54 100% 30.17 1021.6
03 20:56 SW 6 10.00 Fair CLR 55 52 90% 30.17 1021.7
03 19:56 W 7 10.00 Fair CLR 57 55 93% 30.17 1021.6
03 18:56 SW 7 10.00 Fair CLR 60.1 55 84% 30.17 1021.4
03 17:56 W 6 10.00 Fair CLR 61 50 67% 30.16 1021.4
03 16:56 SW 5 10.00 Fair CLR 62.1 46 56% 30.17 1021.6
03 15:56 SW 5 10.00 Fair CLR 62.1 45 64 57 54% 30.16 1021.3
03 14:56 Vrbl 5 8.00 Fair CLR 63 39.9 43% 30.15 1020.9
03 13:56 Calm 10.00 Fair CLR 61 46.9 60% 30.16 1021.2
03 12:56 Calm 9.00 Fair CLR 60.1 48 65% 30.15 1020.8
03 11:56 W 5 10.00 Fair CLR 60.1 48.9 67% 30.13 1020.3
03 10:56 Calm 10.00 Fair CLR 59 48 67% 30.11 1019.6
03 09:56 N 3 10.00 Fair CLR 57.9 48 57.9 52 70% 30.1 1019.4
03 08:56 N 3 10.00 Fair CLR 55.9 48 75% 30.08 1018.7
03 07:56 W 3 10.00 Fair CLR 54 51.1 90% 30.07 1018.4
03 06:56 W 3 10.00 Fair CLR 54 48.9 83% 30.06 1017.8
03 05:56 W 5 10.00 Fair CLR 53.1 50 89% 30.04 1017.4
03 04:56 Calm 10.00 Fair CLR 55 50 83% 30.02 1016.6
03 03:56 W 3 10.00 Fair CLR 54 51.1 55 53.1 90% 30.02 1016.4
03 01:56 W 5 10.00 Fair CLR 54 48.9 83% 29.99 1015.5
03 00:56 W 9 10.00 Fair CLR 55 46 72% 29.97 1015.0
02 23:56 W 7 10.00 Fair CLR 55 48 77% 29.96 1014.7
02 22:56 W 9 10.00 Fair CLR 54 50 87% 29.95 1014.1
02 21:56 W 10 10.00 Fair CLR 54 51.1 59 53.1 90% 29.93 1013.5
02 20:56 W 10 10.00 Fair CLR 53.1 50 89% 29.91 1012.7
02 19:56 W 10 10.00 Fair CLR 55.9 50 81% 29.89 1012.3
02 18:56 W 6 10.00 Fair CLR 57.9 53.1 84% 29.87 1011.5
02 17:56 W 6 10.00 Fair CLR 59 53.1 81% 29.86 1011.0
02 16:56 W 9 10.00 Fair CLR 59 54 83% 29.84 1010.5
02 15:56 W 10 10.00 Fair CLR 59 54 59 54 83% 29.82 1010.0
02 14:56 W 9 10.00 Fair CLR 59 53.1 81% 29.8 1009.2
02 13:56 NW 7 10.00 Fair CLR 57.9 51.1 78% 29.78 1008.6
02 12:56 NW 7 10.00 Fair CLR 57 52 83% 29.77 1008.0
02 11:56 Vrbl 6 10.00 Fair CLR 57 51.1 81% 29.74 1007.1
02 09:56 N 3 10.00 A Few Clouds FEW002 54 54 54 51.1 100% 29.7 1005.8
02 08:56 NW 3 1.50 Fog/Mist FEW002 53.1 53.1 100% 29.69 1005.4
02 07:56 W 6 6.00 Fog/Mist CLR 52 52 100% 29.69 1005.3
02 06:56 W 9 9.00 Fair CLR 52 52 100% 29.68 1005.0
02 05:56 W 9 10.00 Fair CLR 52 52 100% 29.67 1004.7
02 04:56 W 8 10.00 Fair CLR 52 51.1 97% 29.66 1004.4
02 03:56 W 10 10.00 Fair CLR 52 50 52 51.1 93% 29.67 1004.7
02 02:56 W 9 10.00 Fair CLR 52 48.9 89% 29.68 1004.9
02 01:56 W 9 10.00 Fair CLR 52 50 93% 29.67 1004.8
02 00:56 W 9 10.00 Fair CLR 52 50 93% 29.67 1004.8
Date Time (akdt) Wind (mph) Vis. (mi.) Weather Sky Cond. Air Dwpt Max. Min. Relative Humidity Wind Chill (°F) Heat Index (°F) altimeter (in) sea level (mb) 1 hr 3 hr 6 hr
6 hour
Temperature (ºF) Pressure Precipitation (in)